createdAt,value
2023-04-26T00:00:35.486Z,76.53
2023-04-26T00:03:02.326Z,76.83
2023-04-26T00:05:29.718Z,77.33
2023-04-26T00:07:56.802Z,76.80
2023-04-26T00:10:23.507Z,76.79
2023-04-26T00:12:50.113Z,76.92
2023-04-26T00:15:16.795Z,76.67
2023-04-26T00:17:44.072Z,76.70
2023-04-26T00:20:13.241Z,76.70
2023-04-26T00:22:40.119Z,76.60
2023-04-26T00:25:07.283Z,76.88
2023-04-26T00:27:33.907Z,76.53
2023-04-26T00:30:00.652Z,76.77
2023-04-26T00:32:27.340Z,76.66
2023-04-26T00:34:53.995Z,76.76
2023-04-26T00:37:21.595Z,76.87
2023-04-26T00:39:48.227Z,77.09
2023-04-26T00:42:14.871Z,76.96
2023-04-26T00:44:41.478Z,77.02
2023-04-26T00:47:08.110Z,77.27
2023-04-26T00:49:34.769Z,77.33
2023-04-26T00:52:01.570Z,76.89
2023-04-26T00:54:28.958Z,77.14
2023-04-26T00:56:56.354Z,76.72
2023-04-26T00:59:23.760Z,76.59
2023-04-26T01:01:50.377Z,76.30
2023-04-26T01:04:17.884Z,75.96
2023-04-26T01:06:52.170Z,75.98
2023-04-26T01:09:19.263Z,76.04
2023-04-26T01:11:47.270Z,76.13
2023-04-26T01:14:15.342Z,76.38
2023-04-26T01:16:42.246Z,76.65
2023-04-26T01:19:13.421Z,77.04
2023-04-26T01:21:40.876Z,76.42
2023-04-26T01:24:10.163Z,76.63
2023-04-26T01:26:43.894Z,77.06
2023-04-26T01:29:18.160Z,76.86
2023-04-26T01:31:45.277Z,76.86
2023-04-26T01:34:12.414Z,76.75
2023-04-26T01:36:39.317Z,77.06
2023-04-26T01:39:06.391Z,76.60
2023-04-26T01:41:33.751Z,76.20
2023-04-26T01:44:01.396Z,76.19
2023-04-26T01:46:28.177Z,76.11
2023-04-26T01:48:55.254Z,76.33
2023-04-26T01:51:21.941Z,76.38
2023-04-26T01:53:48.651Z,75.92
2023-04-26T01:56:16.165Z,76.23
2023-04-26T01:58:42.997Z,76.13
2023-04-26T02:01:10.232Z,76.12
2023-04-26T02:03:37.151Z,76.03
2023-04-26T02:06:04.988Z,75.42
2023-04-26T02:08:31.625Z,76.11
2023-04-26T02:10:58.507Z,75.96
2023-04-26T02:13:28.561Z,76.30
2023-04-26T02:15:55.836Z,76.11
2023-04-26T02:18:22.684Z,76.16
2023-04-26T02:20:49.529Z,76.36
2023-04-26T02:23:17.472Z,76.18
2023-04-26T02:25:48.846Z,76.33
2023-04-26T02:28:16.399Z,76.79
2023-04-26T02:30:43.496Z,76.33
2023-04-26T02:33:10.773Z,76.74
2023-04-26T02:35:39.816Z,76.66
2023-04-26T02:38:06.832Z,76.90
2023-04-26T02:40:33.700Z,76.70
2023-04-26T02:43:00.420Z,76.95
2023-04-26T02:45:27.220Z,77.06
2023-04-26T02:47:53.951Z,76.90
2023-04-26T02:50:21.874Z,77.01
2023-04-26T02:52:48.504Z,76.47
2023-04-26T02:55:15.345Z,76.52
2023-04-26T02:57:42.015Z,76.23
2023-04-26T03:00:09.466Z,76.50
2023-04-26T03:02:36.547Z,76.68
2023-04-26T03:05:03.877Z,76.59
2023-04-26T03:07:31.497Z,75.83
2023-04-26T03:09:58.189Z,75.97
2023-04-26T03:12:27.155Z,75.72
2023-04-26T03:14:53.961Z,75.89
2023-04-26T03:17:20.498Z,75.94
2023-04-26T03:19:47.242Z,75.95
2023-04-26T03:22:16.408Z,75.85
2023-04-26T03:24:44.662Z,76.11
2023-04-26T03:27:11.330Z,76.27
2023-04-26T03:29:38.011Z,76.31
2023-04-26T03:32:05.391Z,76.26
2023-04-26T03:34:32.206Z,75.86
2023-04-26T03:36:58.995Z,76.25
2023-04-26T03:39:28.381Z,76.06
2023-04-26T03:41:55.074Z,76.36
2023-04-26T03:44:21.830Z,76.12
2023-04-26T03:46:48.680Z,76.17
2023-04-26T03:49:15.341Z,75.73
2023-04-26T03:51:42.990Z,76.20
2023-04-26T03:54:09.605Z,76.90
2023-04-26T03:56:37.095Z,76.89
2023-04-26T03:59:03.683Z,76.91
2023-04-26T04:01:30.406Z,76.60
2023-04-26T04:03:57.478Z,76.40
2023-04-26T04:06:24.248Z,76.51
2023-04-26T04:08:51.914Z,76.33
2023-04-26T04:11:18.785Z,76.93
2023-04-26T04:13:46.131Z,76.58
2023-04-26T04:16:12.826Z,76.03
2023-04-26T04:18:39.570Z,76.20
2023-04-26T04:21:06.800Z,76.05
2023-04-26T04:23:33.442Z,75.40
2023-04-26T04:26:00.130Z,75.47
2023-04-26T04:28:27.272Z,75.57
2023-04-26T04:30:53.932Z,75.58
2023-04-26T04:33:20.575Z,75.49
2023-04-26T04:35:47.174Z,75.71
2023-04-26T04:38:14.345Z,75.26
2023-04-26T04:40:41.283Z,75.05
2023-04-26T04:43:07.993Z,75.17
2023-04-26T04:45:35.559Z,75.71
2023-04-26T04:48:02.230Z,75.10
2023-04-26T04:50:29.343Z,75.37
2023-04-26T04:52:56.443Z,74.75
2023-04-26T04:55:23.090Z,74.99
2023-04-26T04:57:49.659Z,74.91
2023-04-26T05:00:16.844Z,74.10
2023-04-26T05:02:43.603Z,73.62
2023-04-26T05:05:11.313Z,73.57
2023-04-26T05:07:38.068Z,73.40
2023-04-26T05:10:05.230Z,73.12
2023-04-26T05:12:32.092Z,73.36
2023-04-26T05:14:58.672Z,72.98
2023-04-26T05:17:25.518Z,73.48
2023-04-26T05:19:54.227Z,73.68
2023-04-26T05:22:22.553Z,73.77
2023-04-26T05:24:49.666Z,73.73
2023-04-26T05:27:16.545Z,73.62
2023-04-26T05:29:43.239Z,72.81
2023-04-26T05:32:09.995Z,71.67
2023-04-26T05:34:38.601Z,71.70
2023-04-26T05:37:05.099Z,71.13
2023-04-26T05:39:31.988Z,70.41
2023-04-26T05:41:58.599Z,70.20
2023-04-26T05:44:28.387Z,69.29
2023-04-26T05:46:56.372Z,67.99
2023-04-26T05:49:23.025Z,67.62
2023-04-26T05:51:49.763Z,67.72
2023-04-26T05:54:16.409Z,67.02
2023-04-26T05:56:43.048Z,66.51
2023-04-26T05:59:09.908Z,65.93
2023-04-26T06:01:36.665Z,65.18
2023-04-26T06:04:03.682Z,65.87
2023-04-26T06:06:30.715Z,65.07
2023-04-26T06:08:57.308Z,65.17
2023-04-26T06:11:24.013Z,63.96
2023-04-26T06:13:50.982Z,63.34
2023-04-26T06:16:18.198Z,62.55
2023-04-26T06:18:44.899Z,62.63
2023-04-26T06:21:11.595Z,61.77
2023-04-26T06:23:38.146Z,61.77
2023-04-26T06:26:04.816Z,61.25
2023-04-26T06:28:31.585Z,61.26
2023-04-26T06:30:58.380Z,60.52
2023-04-26T06:33:28.239Z,61.14
2023-04-26T06:35:57.226Z,60.16
2023-04-26T06:38:23.842Z,59.50
2023-04-26T06:40:50.536Z,59.93
2023-04-26T06:43:17.190Z,59.15
2023-04-26T06:45:43.892Z,59.16
2023-04-26T06:48:10.579Z,58.09
2023-04-26T06:50:40.279Z,58.04
2023-04-26T06:53:08.401Z,57.51
2023-04-26T06:55:35.212Z,57.28
2023-04-26T06:58:02.407Z,58.14
2023-04-26T07:00:30.081Z,57.40
2023-04-26T07:02:57.234Z,57.29
2023-04-26T07:05:24.238Z,55.93
2023-04-26T07:07:50.978Z,56.42
2023-04-26T07:10:17.960Z,55.96
2023-04-26T07:12:44.977Z,55.04
2023-04-26T07:15:12.050Z,55.88
2023-04-26T07:17:38.823Z,54.62
2023-04-26T07:20:07.459Z,54.03
2023-04-26T07:22:34.437Z,55.01
2023-04-26T07:25:01.526Z,55.57
2023-04-26T07:27:28.144Z,55.36
2023-04-26T07:29:56.926Z,54.73
2023-04-26T07:32:23.786Z,54.92
2023-04-26T07:34:50.453Z,55.40
2023-04-26T07:37:18.022Z,54.99
2023-04-26T07:39:44.636Z,54.68
2023-04-26T07:42:11.317Z,54.53
2023-04-26T07:44:39.938Z,54.25
2023-04-26T07:47:12.671Z,53.96
2023-04-26T07:49:39.313Z,53.26
2023-04-26T07:52:08.240Z,53.23
2023-04-26T07:54:35.455Z,53.43
2023-04-26T07:57:02.075Z,53.45
2023-04-26T07:59:28.684Z,52.69
2023-04-26T08:01:55.362Z,52.46
2023-04-26T08:04:32.704Z,52.55
2023-04-26T08:07:02.003Z,53.55
2023-04-26T08:09:30.735Z,53.00
2023-04-26T08:11:57.772Z,51.91
2023-04-26T08:14:26.509Z,53.08
2023-04-26T08:16:53.749Z,52.74
2023-04-26T08:19:22.040Z,51.14
2023-04-26T08:21:49.649Z,50.78
2023-04-26T08:24:17.257Z,50.32
2023-04-26T08:26:43.890Z,50.60
2023-04-26T08:29:10.667Z,50.06
2023-04-26T08:31:38.063Z,50.14
2023-04-26T08:34:06.133Z,50.53
2023-04-26T08:36:36.587Z,50.79
2023-04-26T08:39:05.067Z,50.04
2023-04-26T08:41:40.345Z,49.37
2023-04-26T08:44:08.473Z,50.33
2023-04-26T08:46:56.186Z,50.06
2023-04-26T08:49:36.113Z,51.09
2023-04-26T08:52:04.743Z,50.65
2023-04-26T08:54:32.600Z,51.54
2023-04-26T08:56:59.787Z,50.98
2023-04-26T08:59:26.784Z,51.19
2023-04-26T09:01:53.835Z,51.07
2023-04-26T09:04:20.707Z,50.30
2023-04-26T09:06:50.013Z,50.98
2023-04-26T09:09:22.017Z,50.19
2023-04-26T09:11:53.069Z,48.71
2023-04-26T09:14:19.801Z,49.14
2023-04-26T09:16:46.621Z,50.13
2023-04-26T09:19:13.363Z,50.98
2023-04-26T09:21:44.853Z,50.62
2023-04-26T09:24:11.925Z,49.40
2023-04-26T09:26:39.140Z,48.51
2023-04-26T09:29:13.774Z,48.86
2023-04-26T09:31:50.013Z,48.12
2023-04-26T09:34:17.047Z,47.74
2023-04-26T09:37:01.481Z,45.70
2023-04-26T09:39:33.149Z,45.84
2023-04-26T09:42:00.155Z,45.95
2023-04-26T09:44:27.166Z,46.20
2023-04-26T09:47:02.487Z,47.04
2023-04-26T09:49:44.722Z,46.15
2023-04-26T09:52:11.407Z,45.23
2023-04-26T09:54:43.196Z,45.76
2023-04-26T09:57:11.900Z,44.96
2023-04-26T09:59:48.157Z,45.69
2023-04-26T10:02:16.284Z,47.21
2023-04-26T10:04:47.038Z,47.50
2023-04-26T10:07:15.624Z,45.47
2023-04-26T10:09:42.756Z,44.80
2023-04-26T10:12:11.317Z,44.17
2023-04-26T10:14:38.147Z,44.63
2023-04-26T10:17:05.838Z,44.14
2023-04-26T10:19:35.111Z,45.36
2023-04-26T10:22:09.354Z,45.64
2023-04-26T10:24:37.225Z,46.01
2023-04-26T10:27:04.665Z,46.74
2023-04-26T10:29:56.752Z,46.64
2023-04-26T10:32:24.159Z,44.74
2023-04-26T10:35:12.686Z,45.73
2023-04-26T10:38:01.145Z,43.70
2023-04-26T10:40:39.378Z,43.63
2023-04-26T10:43:08.792Z,43.53
2023-04-26T10:45:36.715Z,43.45
2023-04-26T10:48:22.976Z,44.45
2023-04-26T10:51:02.047Z,44.36
2023-04-26T10:53:53.815Z,44.62
2023-04-26T10:56:26.479Z,43.86
2023-04-26T11:01:40.828Z,45.59
2023-04-26T11:04:08.626Z,43.46
2023-04-26T11:06:52.432Z,43.54
2023-04-26T11:09:41.424Z,42.90
2023-04-26T11:12:12.858Z,44.44
2023-04-26T11:14:41.841Z,44.57
2023-04-26T11:17:10.191Z,45.00
2023-04-26T11:19:37.018Z,44.98
2023-04-26T11:22:06.528Z,44.58
2023-04-26T11:24:36.815Z,43.49
2023-04-26T11:27:12.585Z,43.40
2023-04-26T11:29:40.417Z,44.02
2023-04-26T11:32:07.555Z,44.56
2023-04-26T11:34:35.690Z,44.74
2023-04-26T11:37:04.922Z,44.20
2023-04-26T11:39:36.180Z,44.69
2023-04-26T11:42:10.725Z,44.10
2023-04-26T11:44:38.169Z,44.25
2023-04-26T11:47:06.800Z,44.31
2023-04-26T11:49:36.410Z,43.41
2023-04-26T11:52:04.995Z,43.74
2023-04-26T11:54:33.819Z,45.59
2023-04-26T11:57:01.269Z,45.62
2023-04-26T11:59:32.362Z,43.09
2023-04-26T12:01:59.165Z,42.66
2023-04-26T12:04:30.674Z,42.60
2023-04-26T12:06:58.904Z,43.01
2023-04-26T12:09:29.901Z,42.26
2023-04-26T12:12:06.321Z,43.51
2023-04-26T12:14:38.014Z,45.76
2023-04-26T12:17:06.455Z,48.12
2023-04-26T12:19:34.544Z,50.12
2023-04-26T12:22:01.223Z,51.90
2023-04-26T12:24:33.392Z,53.39
2023-04-26T12:27:02.409Z,53.68
2023-04-26T12:29:30.837Z,53.91
2023-04-26T12:32:01.696Z,54.92
2023-04-26T12:34:28.617Z,55.11
2023-04-26T12:36:56.045Z,54.99
2023-04-26T12:39:22.863Z,55.81
2023-04-26T12:41:49.592Z,55.52
2023-04-26T12:44:16.317Z,55.17
2023-04-26T12:46:43.239Z,54.84
2023-04-26T12:49:10.064Z,53.29
2023-04-26T12:51:36.688Z,52.82
2023-04-26T12:54:03.661Z,52.36
2023-04-26T12:56:30.491Z,50.24
2023-04-26T12:58:57.276Z,48.59
2023-04-26T13:01:24.095Z,46.68
2023-04-26T13:03:51.146Z,46.37
2023-04-26T13:06:18.195Z,47.55
2023-04-26T13:08:45.142Z,46.97
2023-04-26T13:11:11.774Z,45.38
2023-04-26T13:13:43.935Z,45.53
2023-04-26T13:16:12.589Z,44.96
2023-04-26T13:18:40.495Z,44.85
2023-04-26T13:21:07.222Z,43.78
2023-04-26T13:23:33.843Z,43.45
2023-04-26T13:26:00.514Z,42.61
2023-04-26T13:28:30.257Z,43.12
2023-04-26T13:30:59.696Z,44.24
2023-04-26T13:33:29.395Z,45.06
2023-04-26T13:35:56.985Z,45.96
2023-04-26T13:38:24.296Z,47.31
2023-04-26T13:40:52.263Z,48.62
2023-04-26T13:43:19.090Z,48.37
2023-04-26T13:45:46.006Z,49.22
2023-04-26T13:48:12.919Z,49.96
2023-04-26T13:50:39.904Z,50.93
2023-04-26T13:53:06.699Z,51.23
2023-04-26T13:55:33.457Z,51.80
2023-04-26T13:58:00.138Z,53.03
2023-04-26T14:00:27.322Z,54.12
2023-04-26T14:02:54.405Z,54.21
2023-04-26T14:05:21.647Z,54.22
2023-04-26T14:07:48.377Z,52.99
2023-04-26T14:10:15.854Z,50.73
2023-04-26T14:12:42.806Z,48.02
2023-04-26T14:15:09.969Z,48.34
2023-04-26T14:17:37.100Z,45.58
2023-04-26T14:20:05.229Z,45.71
2023-04-26T14:22:31.943Z,44.82
2023-04-26T14:25:00.354Z,45.08
2023-04-26T14:27:27.012Z,44.15
2023-04-26T14:29:54.085Z,43.23
2023-04-26T14:32:21.916Z,42.35
2023-04-26T14:34:48.577Z,42.41
2023-04-26T14:37:15.352Z,43.08
2023-04-26T14:39:42.703Z,44.08
2023-04-26T14:42:09.338Z,41.63
2023-04-26T14:44:38.395Z,42.46
2023-04-26T14:47:05.069Z,42.72
2023-04-26T14:49:31.901Z,43.25
2023-04-26T14:51:58.512Z,44.11
2023-04-26T14:54:26.536Z,46.51
2023-04-26T14:56:53.762Z,48.25
2023-04-26T14:59:20.464Z,49.64
2023-04-26T15:01:47.208Z,50.87
2023-04-26T15:04:14.158Z,52.48
2023-04-26T15:06:41.262Z,54.02
2023-04-26T15:09:08.829Z,56.17
2023-04-26T15:11:35.546Z,57.20
2023-04-26T15:14:02.246Z,58.62
2023-04-26T15:16:28.883Z,58.50
2023-04-26T15:18:56.084Z,59.12
2023-04-26T15:21:22.785Z,59.34
2023-04-26T15:23:49.448Z,59.50
2023-04-26T15:26:16.208Z,59.08
2023-04-26T15:28:42.802Z,59.46
2023-04-26T15:31:11.047Z,59.55
2023-04-26T15:33:37.845Z,58.91
2023-04-26T15:36:05.445Z,58.89
2023-04-26T15:38:34.124Z,58.94
2023-04-26T15:41:01.100Z,58.15
2023-04-26T15:43:27.939Z,58.03
2023-04-26T15:45:55.193Z,57.11
2023-04-26T15:48:22.052Z,55.79
2023-04-26T15:50:48.708Z,53.66
2023-04-26T15:53:16.362Z,52.58
2023-04-26T15:55:45.105Z,52.41
2023-04-26T15:58:11.909Z,53.15
2023-04-26T16:00:38.905Z,53.53
2023-04-26T16:03:05.667Z,54.46
2023-04-26T16:05:32.488Z,55.88
2023-04-26T16:07:59.822Z,56.54
2023-04-26T16:10:26.611Z,57.39
2023-04-26T16:12:53.318Z,57.87
2023-04-26T16:15:20.042Z,58.14
2023-04-26T16:17:46.748Z,58.82
2023-04-26T16:20:13.537Z,59.04
2023-04-26T16:22:40.388Z,59.24
2023-04-26T16:25:09.020Z,58.92
2023-04-26T16:27:35.912Z,58.74
2023-04-26T16:30:04.109Z,58.22
2023-04-26T16:32:31.499Z,58.22
2023-04-26T16:34:58.278Z,58.11
2023-04-26T16:37:27.040Z,57.51
2023-04-26T16:39:56.120Z,57.44
2023-04-26T16:42:23.063Z,58.43
2023-04-26T16:44:49.690Z,57.43
2023-04-26T16:47:17.489Z,56.80
2023-04-26T16:49:44.088Z,57.07
2023-04-26T16:52:10.806Z,56.81
2023-04-26T16:54:37.641Z,56.80
2023-04-26T16:57:04.578Z,56.62
2023-04-26T16:59:31.197Z,56.76
2023-04-26T17:02:00.029Z,57.23
2023-04-26T17:04:27.430Z,57.93
2023-04-26T17:06:57.238Z,59.08
2023-04-26T17:09:23.980Z,60.67
2023-04-26T17:11:50.995Z,61.48
2023-04-26T17:14:17.719Z,62.83
2023-04-26T17:16:44.597Z,63.92
2023-04-26T17:19:12.075Z,64.93
2023-04-26T17:21:38.659Z,64.58
2023-04-26T17:24:05.959Z,64.47
2023-04-26T17:26:32.578Z,63.92
2023-04-26T17:28:59.367Z,62.47
2023-04-26T17:31:28.786Z,61.51
2023-04-26T17:33:56.609Z,60.35
2023-04-26T17:36:23.506Z,59.34
2023-04-26T17:38:50.144Z,58.53
2023-04-26T17:41:17.792Z,57.87
2023-04-26T17:43:47.213Z,57.27
2023-04-26T17:46:14.197Z,57.66
2023-04-26T17:48:45.293Z,57.18
2023-04-26T17:51:12.177Z,57.16
2023-04-26T17:53:39.045Z,57.30
2023-04-26T17:56:07.684Z,57.40
2023-04-26T17:58:34.406Z,58.25
2023-04-26T18:01:01.223Z,58.30
2023-04-26T18:03:31.506Z,59.22
2023-04-26T18:05:58.265Z,59.62
2023-04-26T18:08:32.759Z,59.70
2023-04-26T18:11:06.391Z,60.15
2023-04-26T18:13:35.379Z,60.97
2023-04-26T18:16:03.455Z,60.63
2023-04-26T18:18:30.099Z,60.54
2023-04-26T18:20:57.768Z,61.15
2023-04-26T18:23:24.343Z,61.20
2023-04-26T18:25:51.110Z,60.89
2023-04-26T18:28:17.799Z,61.12
2023-04-26T18:30:45.466Z,61.16
2023-04-26T18:33:12.300Z,61.99
2023-04-26T18:35:44.927Z,61.98
2023-04-26T18:38:11.635Z,62.06
2023-04-26T18:40:43.716Z,62.08
2023-04-26T18:43:10.636Z,63.39
2023-04-26T18:45:37.250Z,62.62
2023-04-26T18:48:04.583Z,62.93
2023-04-26T18:50:31.288Z,63.02
2023-04-26T18:52:58.404Z,61.79
2023-04-26T18:55:26.402Z,61.03
2023-04-26T18:57:53.110Z,60.52
2023-04-26T19:00:19.990Z,60.48
2023-04-26T19:02:46.818Z,60.33
2023-04-26T19:05:13.730Z,60.38
2023-04-26T19:07:41.405Z,60.79
2023-04-26T19:10:08.521Z,60.58
2023-04-26T19:12:35.146Z,61.08
2023-04-26T19:15:02.903Z,62.06
2023-04-26T19:17:31.759Z,62.08
2023-04-26T19:19:58.392Z,62.14
2023-04-26T19:22:27.313Z,62.82
2023-04-26T19:24:53.959Z,63.20
2023-04-26T19:27:20.678Z,63.48
2023-04-26T19:29:47.332Z,63.51
2023-04-26T19:32:14.553Z,63.83
2023-04-26T19:34:41.182Z,64.29
2023-04-26T19:37:07.891Z,64.50
2023-04-26T19:39:34.590Z,64.71
2023-04-26T19:42:01.638Z,64.91
2023-04-26T19:44:28.453Z,65.63
2023-04-26T19:46:55.522Z,65.64
2023-04-26T19:49:22.308Z,65.09
2023-04-26T19:51:48.954Z,64.31
2023-04-26T19:54:17.894Z,61.82
2023-04-26T19:56:44.588Z,61.08
2023-04-26T19:59:11.262Z,60.44
2023-04-26T20:01:38.138Z,59.54
2023-04-26T20:04:04.847Z,59.38
2023-04-26T20:06:33.140Z,59.00
2023-04-26T20:08:59.744Z,58.57
2023-04-26T20:11:26.790Z,59.01
2023-04-26T20:13:53.695Z,58.93
2023-04-26T20:16:20.269Z,58.43
2023-04-26T20:18:47.101Z,58.63
2023-04-26T20:21:14.523Z,58.89
2023-04-26T20:23:41.214Z,59.28
2023-04-26T20:26:08.949Z,59.72
2023-04-26T20:28:35.968Z,60.35
2023-04-26T20:31:02.778Z,60.23
2023-04-26T20:33:29.548Z,60.10
2023-04-26T20:35:59.382Z,60.43
2023-04-26T20:38:29.041Z,60.63
2023-04-26T20:40:56.272Z,60.67
2023-04-26T20:43:23.297Z,61.18
2023-04-26T20:45:51.018Z,61.79
2023-04-26T20:48:17.776Z,61.85
2023-04-26T20:50:44.497Z,62.01
2023-04-26T20:53:11.261Z,62.24
2023-04-26T20:55:37.915Z,62.72
2023-04-26T20:58:04.587Z,63.40
2023-04-26T21:00:31.297Z,63.82
2023-04-26T21:02:58.018Z,63.98
2023-04-26T21:05:27.291Z,63.98
2023-04-26T21:07:53.977Z,64.43
2023-04-26T21:10:20.698Z,64.55
2023-04-26T21:12:47.369Z,64.44
2023-04-26T21:15:14.832Z,64.92
2023-04-26T21:17:41.447Z,64.54
2023-04-26T21:20:08.488Z,64.89
2023-04-26T21:22:36.390Z,64.81
2023-04-26T21:25:03.839Z,65.02
2023-04-26T21:27:30.607Z,65.33
2023-04-26T21:29:58.227Z,65.54
2023-04-26T21:32:25.300Z,65.66
2023-04-26T21:34:51.931Z,66.27
2023-04-26T21:37:18.573Z,66.52
2023-04-26T21:39:45.183Z,66.69
2023-04-26T21:42:12.151Z,67.05
2023-04-26T21:44:38.852Z,66.91
2023-04-26T21:47:05.664Z,67.30
2023-04-26T21:49:32.359Z,67.74
2023-04-26T21:51:58.983Z,67.41
2023-04-26T21:54:26.165Z,68.20
2023-04-26T21:56:52.758Z,68.32
2023-04-26T21:59:19.743Z,67.65
2023-04-26T22:01:46.493Z,67.95
2023-04-26T22:04:13.287Z,68.21
2023-04-26T22:06:40.112Z,68.12
2023-04-26T22:09:10.024Z,68.13
2023-04-26T22:11:36.918Z,68.05
2023-04-26T22:14:03.546Z,68.18
2023-04-26T22:16:30.142Z,67.97
2023-04-26T22:18:56.786Z,67.91
2023-04-26T22:21:23.629Z,67.73
2023-04-26T22:23:50.437Z,67.98
2023-04-26T22:26:17.088Z,67.98
2023-04-26T22:28:43.711Z,67.67
2023-04-26T22:31:10.418Z,67.84
2023-04-26T22:33:37.202Z,68.38
2023-04-26T22:36:04.624Z,68.08
2023-04-26T22:38:31.401Z,68.54
2023-04-26T22:40:58.012Z,68.56
2023-04-26T22:43:26.680Z,69.03
2023-04-26T22:45:53.259Z,69.22
2023-04-26T22:48:19.983Z,68.84
2023-04-26T22:50:49.866Z,69.08
2023-04-26T22:53:16.928Z,69.42
2023-04-26T22:55:43.916Z,70.02
2023-04-26T22:58:10.951Z,69.89
2023-04-26T23:00:37.736Z,69.99
2023-04-26T23:03:04.490Z,69.55
2023-04-26T23:05:32.170Z,69.76
2023-04-26T23:07:58.853Z,69.97
2023-04-26T23:10:25.693Z,70.13
2023-04-26T23:12:53.000Z,69.91
2023-04-26T23:15:19.837Z,70.43
2023-04-26T23:17:46.923Z,71.15
2023-04-26T23:20:13.668Z,71.66
2023-04-26T23:22:41.335Z,71.88
2023-04-26T23:25:09.058Z,72.01
2023-04-26T23:27:36.804Z,72.76
2023-04-26T23:30:05.094Z,72.54
2023-04-26T23:32:32.933Z,73.06
2023-04-26T23:34:59.671Z,73.69
2023-04-26T23:37:31.107Z,73.66
2023-04-26T23:39:57.789Z,73.69
2023-04-26T23:42:24.442Z,73.73
2023-04-26T23:44:51.217Z,73.94
2023-04-26T23:47:18.035Z,73.87
2023-04-26T23:49:44.652Z,74.50
2023-04-26T23:52:11.536Z,74.45
2023-04-26T23:54:38.121Z,75.28
2023-04-26T23:57:04.812Z,75.34
2023-04-26T23:59:31.496Z,75.54
